• Join FlightAware (Why Join?)
  • Login
  • US Flag 
09:45AM EDT


 

Airport Tracker/Info


-or-


 

Live Flight TrackerFlight Track Log ✈ AWE3374 ✈ 24-Jul-2013 ✈ KDCA - KSDF

Flight Track Log - Related Links

Times and Time Zones

All times are in EDT time to prevent confusion due to time zone crossing. See the AWE3374 flight status page for this flight to view local times or setup timezone preferences in your user account.

Time Position Orientation Groundspeed Altitude Reporting Facility
EDT Latitude Longitude Course Direction KTS MPH feet Rate Location/Type
02:28PM 38.8667 -77.0500 270° West 139 160 1,100  Level Potomac TRACON
02:29PM 38.9167 -77.0833 333° Northwest 175 201 2,700 1,800 Climbing Potomac TRACON
02:30PM 38.8500 -77.4041 270° West  Level FlightAware Approximate
02:30PM 38.9667 -77.1500 314° West 243 280 4,800  Level Potomac TRACON
02:31PM 38.8500 -77.5277 270° West  Level FlightAware Approximate
02:31PM 39.0167 -77.2000 322° Northwest 275 316 7,900  Level Potomac TRACON
02:32PM 38.8500 -77.6513 270° West  Level FlightAware Approximate
02:32PM 39.0333 -77.2833 284° West 278 320 10,900  Level Potomac TRACON
02:33PM 38.8501 -77.7749 270° West  Level FlightAware Approximate
02:33PM 39.0167 -77.3833 258° West 291 335 12,800  Level Potomac TRACON
02:34PM 38.8502 -77.8985 270° West  Level FlightAware Approximate
02:35PM 38.9825 -77.5758 257° West 323 372 16,400  Level Washington Center
02:36PM 38.9575 -77.6978 255° West 323 372 18,400 1,980 Climbing Washington Center
02:37PM 38.9347 -77.8039 255° West 333 383 20,400 2,040 Climbing Washington Center
02:38PM 38.9094 -77.9367 256° West 345 397 22,600 1,860 Climbing Washington Center
02:39PM 38.8839 -78.0611 255° West 355 409 24,300 1,860 Climbing Washington Center
02:40PM 38.8583 -78.1803 255° West 355 409 26,300 1,320 Climbing Washington Center
02:41PM 38.8514 -78.3133 266° West 360 414 27,000 300 Climbing Washington Center
02:42PM 38.8506 -78.4439 270° West 367 422 27,000 420 Level Washington Center
02:43PM 38.8472 -78.5742 268° West 367 422 27,900 1,200 Climbing Washington Center
02:44PM 38.8481 -78.7103 270° West 373 429 29,400 1,560 Climbing Washington Center
02:45PM 38.8444 -78.8433 268° West 373 429 31,100 1,320 Climbing Washington Center
02:46PM 38.8450 -78.9767 270° West 373 429 32,100 960 Climbing Washington Center
02:47PM 38.8411 -79.1125 268° West 379 436 33,100 900 Climbing Washington Center
02:48PM 38.8328 -79.2481 266° West 384 442 34,000 420 Climbing Washington Center
02:49PM 38.8100 -79.3775 257° West 379 436 34,000  Level Washington Center
02:50PM 38.7850 -79.5039 256° West 379 436 34,000  Level Washington Center
02:51PM 38.7664 -79.6256 259° West 379 436 34,000  Level Washington Center
02:52PM 38.7433 -79.7547 257° West 379 436 34,000  Level Washington Center
02:53PM 38.7181 -79.8811 256° West 379 436 34,000  Level Washington Center
02:54PM 38.6919 -80.0231 257° West 374 430 34,000  Level Washington Center
02:55PM 38.6681 -80.1353 255° West 368 423 34,000  Level Indianapolis Center
02:56PM 38.6367 -80.2881 255° West 371 427 34,000  Level Indianapolis Center
02:57PM 38.6061 -80.4142 253° West 370 426 34,000  Level Indianapolis Center
02:58PM 38.5772 -80.5367 253° West 364 419 34,000  Level Indianapolis Center
02:59PM 38.5467 -80.6619 253° West 367 422 34,000  Level Indianapolis Center
03:00PM 38.5164 -80.7864 253° West 366 421 34,000  Level Indianapolis Center
03:01PM 38.4867 -80.9119 253° West 368 423 34,000  Level Indianapolis Center
03:02PM 38.4497 -81.0611 252° West 367 422 34,000  Level Indianapolis Center
03:04PM 38.4189 -81.1867 253° West 367 422 34,000  Level Indianapolis Center
03:05PM 38.3864 -81.3119 252° West 369 425 34,000  Level Indianapolis Center
03:06PM 38.3564 -81.4364 253° West 364 419 34,000  Level Indianapolis Center
03:07PM 38.3250 -81.5619 252° West 367 422 34,000  Level Indianapolis Center
03:08PM 38.2931 -81.6872 252° West 370 426 34,000  Level Indianapolis Center
03:09PM 38.2672 -81.8147 256° West 369 425 34,000  Level Indianapolis Center
03:10PM 38.2461 -81.9403 258° West 362 417 34,000  Level Indianapolis Center
03:11PM 38.2222 -82.0697 257° West 373 429 34,000  Level Indianapolis Center
03:12PM 38.1833 -82.2181 252° West 369 425 34,000  Level Indianapolis Center
03:13PM 38.1492 -82.3411 251° West 369 425 34,000  Level Indianapolis Center
03:14PM 38.1169 -82.4636 252° West 366 421 34,000 -420 Level Indianapolis Center
03:15PM 38.0831 -82.5847 250° West 362 417 33,200 -900 Descending Indianapolis Center
03:16PM 38.0492 -82.7103 251° West 374 430 32,200 -600 Descending Indianapolis Center
03:17PM 38.0086 -82.8583 251° West 380 437 32,000 -120 Descending Indianapolis Center
03:18PM 37.9747 -82.9861 251° West 381 438 32,000  Level Indianapolis Center
03:19PM 37.9392 -83.1131 250° West 382 440 32,000  Level Indianapolis Center
03:20PM 37.9042 -83.2394 251° West 381 438 32,000  Level Indianapolis Center
03:21PM 37.8694 -83.3642 251° West 375 432 32,000  Level Indianapolis Center
03:22PM 37.8283 -83.5117 251° West 380 437 32,000 -540 Level Indianapolis Center
03:23PM 37.7925 -83.6375 250° West 381 438 31,000 -1,500 Descending Indianapolis Center
03:24PM 37.7558 -83.7647 250° West 386 444 29,000 -1,920 Descending Indianapolis Center
03:25PM 37.7211 -83.8875 250° West 374 430 27,000 -1,920 Descending Indianapolis Center
03:26PM 37.6869 -84.0058 250° West 363 418 25,100 -1,920 Descending Indianapolis Center
03:27PM 37.6481 -84.1392 250° West 353 406 23,100 -1,440 Descending Indianapolis Center
03:28PM 37.6156 -84.2544 250° West 350 403 22,200 -1,320 Descending Indianapolis Center
03:29PM 37.5825 -84.3683 250° West 347 399 20,400 -1,800 Descending Indianapolis Center
03:30PM 37.5500 -84.4819 250° West 346 398 18,500 -1,800 Descending Indianapolis Center
03:31PM 37.5167 -84.5936 249° West 340 391 16,700 -1,800 Descending Indianapolis Center
03:32PM 37.4992 -84.7239 260° West 330 380 14,900 -1,860 Descending Indianapolis Center
03:34PM 37.5536 -84.8153 307° West 326 375 12,900 -1,800 Descending Indianapolis Center
03:35PM 37.6139 -84.8992 312° West 323 372 11,300 -1,140 Descending Indianapolis Center
03:36PM 37.6736 -84.9800 313° West 315 362 10,600 -660 Descending Indianapolis Center
03:37PM 37.7314 -85.0622 312° West 312 359 10,000 -300 Descending Indianapolis Center
03:38PM 37.8000 -85.1581 312° West 313 360 10,000 -120 Level Indianapolis Center
03:39PM 37.8400 -85.2417 301° West 301 346 9,800 -840 Descending Indianapolis Center
03:40PM 37.8803 -85.3242 302° West 280 322 8,300 -1,440 Descending Indianapolis Center
03:41PM 37.9197 -85.4044 302° West 271 312 6,900 -1,440 Descending Indianapolis Center
03:42PM 37.9578 -85.4881 300° West 272 313 5,400 -1,500 Descending Indianapolis Center
03:43PM 38.0050 -85.5833 302° West 269 310 3,800 -1,260 Descending Indianapolis Center
03:44PM 38.0425 -85.6578 303° West 261 300 2,900 -900 Descending Indianapolis Center